Terminal Aerodrome Forecast
Issued by NWS Portland, ME

Home | Current Version | Previous Version | Text Only | Print | Product List | Glossary On
Versions: 1 2 3 4 5 6 7 8 9 10 11 12 13 14 15 16 17 18 19 20 21 22 23 24 25 26
000
FTUS41 KGYX 022341
TAFPWM
TAF
KPWM 022341Z 0300/0324 19005KT P6SM SCT100
     FM030200 VRB03KT 5SM BR BKN003
      TEMPO 0304/0308 3SM -SHRA BR BKN012
     FM030800 27007KT 3SM BR BKN012
     FM031200 30011G20KT P6SM SCT050=

USA.gov is the U.S. government's official web portal to all federal, state and local government web resources and services.